メインページ
METAR-TAF:

METAR-TAF

空港 :

リスボン, ポルトガル

ウンベルト・デルガード空港

緯度: 38-46N, 経度: 009-08W, 海抜: 114m

現時点の気象観測

当レポートは22分前の01:30(UTC)に作成
の風 8kt
気温 10°C
湿度 82%
気圧 1024 hPa
視程10km以上
1,500メートル以下は雲なし、積乱雲なし

METAR: LPPT 180130Z 35008KT CAVOK 10/07 Q1024

時間: 01:52 (01:52 UTC)

予報

当レポートは2時間52分前の23:00(UTC)に作成
予報は18日の 00時(UTC)から 19日の 06時(UTC)まで有効
の風 8kt
視程10km以上
1,500メートル以下は雲なし、積乱雲なし
18日の 03時(UTC)から 18日の 06時(UTC)まで徐々に
北東の風 12kt
18日の 14時(UTC)から 18日の 16時(UTC)まで徐々に
北/北西の風 13kt
18日の 20時(UTC)から 18日の 22時(UTC)まで徐々に
北/北東の風 8kt
視程10km以上
高度1200ftの雲はほとんどない

TAF: LPPT 172300Z 1800/1906 36008KT CAVOK BECMG 1803/1806 05012KT BECMG 1814/1816 34013KT BECMG 1820/1822 02008KT 9999 FEW012

4,000以上の空港の気象観測と天気予報(METAR報とTAF報)

利用可能な観測所は地図上に黄色い丸と赤い丸で示す。

丸の上にカーソルを重ねると観測所名を参照できる。

次にクリックすると気象観測と天気予報を参照できる。

マップの切り替え:黒色「×」印の緑ボタンをクリックして拡大、「-」印の緑ボタンをクリックして縮小、緑色の三角印をクリックして隣りの地図に切り替え


METAR-TAF: